createdAt,value
2018-09-30T00:07:31.185Z,3.25
2018-09-30T00:18:33.507Z,3.24
2018-09-30T00:29:31.724Z,3.24
2018-09-30T00:40:33.119Z,3.23
2018-09-30T00:51:34.417Z,3.23
2018-09-30T01:02:37.457Z,3.23
2018-09-30T01:13:36.074Z,3.22
2018-09-30T01:24:36.768Z,3.22
2018-09-30T01:35:37.578Z,3.22
2018-09-30T01:46:36.369Z,3.22
2018-09-30T01:57:35.699Z,3.21
2018-09-30T02:08:35.939Z,3.21
2018-09-30T02:19:39.295Z,3.21
2018-09-30T02:30:41.808Z,3.21
2018-09-30T02:41:43.899Z,3.21
2018-09-30T02:52:44.845Z,3.20
2018-09-30T03:03:47.040Z,3.20
2018-09-30T03:14:48.727Z,3.19
2018-09-30T03:25:50.777Z,3.19
2018-09-30T03:36:49.405Z,3.19
2018-09-30T03:47:51.480Z,3.19
2018-09-30T03:58:52.847Z,3.18
2018-09-30T04:09:55.356Z,3.18
2018-09-30T04:20:57.649Z,3.18
2018-09-30T04:32:00.713Z,3.17
2018-09-30T04:43:02.479Z,3.17
2018-09-30T04:54:01.684Z,3.17
2018-09-30T05:05:03.753Z,3.17
2018-09-30T05:16:06.154Z,3.17
2018-09-30T05:27:08.289Z,3.17
2018-09-30T05:38:10.275Z,3.17
2018-09-30T05:49:09.796Z,3.17
2018-09-30T06:00:05.426Z,3.18
2018-09-30T06:11:08.398Z,3.18
2018-09-30T06:22:09.347Z,3.19
2018-09-30T06:33:10.870Z,3.19
2018-09-30T06:44:13.978Z,3.21
2018-09-30T06:55:14.857Z,3.21
2018-09-30T07:06:16.317Z,3.22
2018-09-30T07:17:11.923Z,3.23
2018-09-30T07:28:11.449Z,3.25
2018-09-30T07:39:09.894Z,3.25
2018-09-30T07:49:57.746Z,3.26
2018-09-30T08:01:00.019Z,3.27
2018-09-30T08:12:03.473Z,3.28
2018-09-30T08:23:06.381Z,3.30
2018-09-30T08:34:07.829Z,3.31
2018-09-30T08:45:09.461Z,3.32
2018-09-30T08:56:07.967Z,3.33
2018-09-30T09:06:57.089Z,3.34
2018-09-30T09:17:55.561Z,3.34
2018-09-30T09:28:48.900Z,3.35
2018-09-30T09:39:44.388Z,3.36
2018-09-30T09:50:45.446Z,3.37
2018-09-30T10:01:44.976Z,3.39
2018-09-30T10:12:44.778Z,3.39
2018-09-30T10:23:46.047Z,3.40
2018-09-30T10:34:46.674Z,3.41
2018-09-30T10:45:47.283Z,3.44
2018-09-30T10:56:48.434Z,3.43
2018-09-30T11:07:51.552Z,3.39
2018-09-30T11:18:55.706Z,3.39
2018-09-30T11:29:59.584Z,3.43
2018-09-30T11:41:00.322Z,3.39
2018-09-30T11:52:01.032Z,3.39
2018-09-30T12:03:01.301Z,3.39
2018-09-30T12:13:54.455Z,3.39
2018-09-30T12:24:50.130Z,3.39
2018-09-30T12:35:50.845Z,3.39
2018-09-30T12:46:46.635Z,3.39
2018-09-30T12:57:41.230Z,3.40
2018-09-30T13:08:31.854Z,3.40
2018-09-30T13:19:34.669Z,3.40
2018-09-30T13:30:08.302Z,3.40
2018-09-30T13:41:05.397Z,3.40
2018-09-30T13:52:10.272Z,3.41
2018-09-30T14:02:58.476Z,3.40
2018-09-30T14:13:54.777Z,3.43
2018-09-30T14:24:54.069Z,3.44
2018-09-30T14:35:48.207Z,3.44
2018-09-30T14:46:44.651Z,3.44
2018-09-30T14:57:35.848Z,3.44
2018-09-30T15:08:30.887Z,3.42
2018-09-30T15:19:21.322Z,3.40
2018-09-30T15:30:18.529Z,3.42
2018-09-30T15:41:15.285Z,3.41
2018-09-30T15:51:47.996Z,3.41
2018-09-30T16:02:34.093Z,3.41
2018-09-30T16:13:28.293Z,3.40
2018-09-30T16:24:19.854Z,3.39
2018-09-30T16:35:12.257Z,3.38
2018-09-30T16:46:09.148Z,3.37
2018-09-30T16:57:09.943Z,3.37
2018-09-30T17:08:10.795Z,3.36
2018-09-30T17:19:04.039Z,3.35
2018-09-30T17:29:58.478Z,3.34
2018-09-30T17:40:48.338Z,3.34
2018-09-30T17:51:38.900Z,3.34
2018-09-30T18:02:34.559Z,3.33
2018-09-30T18:13:36.789Z,3.33
2018-09-30T18:24:37.297Z,3.33
2018-09-30T18:35:38.503Z,3.33
2018-09-30T18:46:36.776Z,3.32
2018-09-30T18:57:31.733Z,3.32
2018-09-30T19:08:30.034Z,3.31
2018-09-30T19:19:28.274Z,3.30
2018-09-30T19:30:21.803Z,3.30
2018-09-30T19:41:23.047Z,3.30
2018-09-30T19:52:19.871Z,3.30
2018-09-30T20:03:17.232Z,3.29
2018-09-30T20:14:10.551Z,3.29
2018-09-30T20:25:10.089Z,3.29
2018-09-30T20:36:10.162Z,3.28
2018-09-30T20:47:11.130Z,3.28
2018-09-30T20:58:05.715Z,3.28
2018-09-30T21:09:04.707Z,3.28
2018-09-30T21:20:05.926Z,3.27
2018-09-30T21:31:06.904Z,3.27
2018-09-30T21:42:10.562Z,3.27
2018-09-30T21:53:11.361Z,3.26
2018-09-30T22:04:13.119Z,3.26
2018-09-30T22:15:13.906Z,3.26
2018-09-30T22:26:13.589Z,3.26
2018-09-30T22:37:13.972Z,3.25
2018-09-30T22:48:10.978Z,3.25
2018-09-30T22:59:11.733Z,3.25
2018-09-30T23:10:14.069Z,3.25
2018-09-30T23:21:15.913Z,3.25
2018-09-30T23:32:18.452Z,3.25
2018-09-30T23:43:20.286Z,3.24
2018-09-30T23:54:22.502Z,3.24
